Pola de Lena, Spain
Current Conditions -  °F | °C
As of 12:00 PM on Friday 28 Nov 2014 (Local Time) from LEAS Reporting Station
Clear Clear  
Wind Chill: 61°   Ceiling: Unl
Heat Index: 61°   Visibility: 6mi
Dew Point: 45°   Wind: 7mph
Humidity: 55%   Direction: 150°SSE
Pressure: 28.91"   Gusts: NA
Location:  43.16°N, 5.83°W
Report Text: LEAS 281100Z 15006KT 120V190 CAVOK 16/07 Q0979 NOSIG
Loading
Personal Weather Stations






























Interactive Weather Map New forecast layout! Learn more

10-Day Weather Forecast

Advertisements
Track Severe Weather on mobile